CTS3 weather

Lac Berthelot Seaplane Base
Quebec, Canada

Public forecast

Using degrees Celsius for public forecast. Weather courtesy of forecast.io.

Closest aviation weather report (METAR) to Lac Berthelot Seaplane Base

Closest report is Val-d'Or Airport, 70.5 nm (130.6 km) WSW. Retrieved 2019/11/15 04:17 UTC (18 minutes ago):

CYVO 150417Z AUTO 20007KT 1/2SM R18/P6000FT/U SN VV011 M03/M04 A2978 RMK SLP110

Closest aviation forecast (TAF) to Lac Berthelot Seaplane Base

Closest forecast is Val-d'Or Airport, 70.5 nm (130.6 km) WSW. Retrieved 2019-11-15 00:00 UTC (5 hours ago):

TAF CYVO 142339Z 1500/1512 19008KT P6SM -SHSN SCT012 OVC030 TEMPO 1500/1504 5SM -SHSN BKN012 OVC030 PROB40 1500/1504 21/2SM -SHSN FM150400 22012G22KT 3/4SM -SHSN VV008 TEMPO 1504/1511 2SM -SN SCT008 OVC015 BECMG 1508/1510 30012G22KT FM151100 30012G22KT 5SM -SHSN BLSN SCT020 BKN030 RMK NXT FCST BY 150600Z